Reno, Pennsylvania
Current Conditions -  °F | °C
As of 5:35 PM on Sunday 23 Nov 2014 (Local Time) from KFKL Reporting Station
Clear Clear  
Wind Chill: 52°   Ceiling: Unl
Heat Index: 52°   Visibility: 10mi
Dew Point: 39°   Wind: 13mph
Humidity: 62%   Direction: 120°ESE
Pressure: 29.84"   Gusts: NA
Location:  41.41°N, 79.75°W
Report Text: KFKL 232235Z AUTO 12011KT 10SM CLR 11/04 A2984 RMK AO1
Loading
Personal Weather Stations






























Interactive Weather Map New forecast layout! Learn more

10-Day Weather Forecast

Advertisements
Track Severe Weather on mobile